sensor_id;sensor_type;location;lat;lon;timestamp;P1;durP1;ratioP1;P2;durP2;ratioP2
50064;SDS011;35951;47.848;-122.338;2022-10-17T00:01:05;25.37;;;17.55;;
50064;SDS011;35951;47.848;-122.338;2022-10-17T00:03:33;32.53;;;18.15;;
50064;SDS011;35951;47.848;-122.338;2022-10-17T00:06:07;27.15;;;19.75;;
50064;SDS011;35951;47.848;-122.338;2022-10-17T00:08:38;24.75;;;17.87;;
50064;SDS011;35951;47.848;-122.338;2022-10-17T00:11:11;28.02;;;17.15;;
50064;SDS011;35951;47.848;-122.338;2022-10-17T00:13:43;26.48;;;18.35;;
50064;SDS011;35951;47.848;-122.338;2022-10-17T00:16:12;33.35;;;20.40;;
50064;SDS011;35951;47.848;-122.338;2022-10-17T00:18:41;37.00;;;20.17;;
50064;SDS011;35951;47.848;-122.338;2022-10-17T00:21:16;26.70;;;18.90;;
50064;SDS011;35951;47.848;-122.338;2022-10-17T00:23:45;26.00;;;19.52;;
50064;SDS011;35951;47.848;-122.338;2022-10-17T00:26:13;27.85;;;17.40;;
50064;SDS011;35951;47.848;-122.338;2022-10-17T00:31:16;31.27;;;20.37;;
50064;SDS011;35951;47.848;-122.338;2022-10-17T00:33:46;31.33;;;21.25;;
50064;SDS011;35951;47.848;-122.338;2022-10-17T00:36:15;31.70;;;22.52;;
50064;SDS011;35951;47.848;-122.338;2022-10-17T00:38:46;30.50;;;22.65;;
50064;SDS011;35951;47.848;-122.338;2022-10-17T00:41:17;34.58;;;21.85;;
50064;SDS011;35951;47.848;-122.338;2022-10-17T00:46:34;30.97;;;21.25;;
50064;SDS011;35951;47.848;-122.338;2022-10-17T00:49:09;32.58;;;22.05;;
50064;SDS011;35951;47.848;-122.338;2022-10-17T00:51:41;33.10;;;22.75;;
50064;SDS011;35951;47.848;-122.338;2022-10-17T00:54:09;42.85;;;24.25;;
50064;SDS011;35951;47.848;-122.338;2022-10-17T00:56:39;33.45;;;23.27;;
50064;SDS011;35951;47.848;-122.338;2022-10-17T00:59:08;32.65;;;23.22;;
50064;SDS011;35951;47.848;-122.338;2022-10-17T01:01:39;36.75;;;23.65;;
50064;SDS011;35951;47.848;-122.338;2022-10-17T01:04:10;31.77;;;21.75;;
50064;SDS011;35951;47.848;-122.338;2022-10-17T01:06:38;33.17;;;24.53;;
50064;SDS011;35951;47.848;-122.338;2022-10-17T01:14:28;36.98;;;21.15;;
50064;SDS011;35951;47.848;-122.338;2022-10-17T01:17:34;33.55;;;21.97;;
50064;SDS011;35951;47.848;-122.338;2022-10-17T01:26:16;39.65;;;22.75;;
50064;SDS011;35951;47.848;-122.338;2022-10-17T01:31:51;29.02;;;20.10;;
50064;SDS011;35951;47.848;-122.338;2022-10-17T01:37:11;34.38;;;21.80;;
50064;SDS011;35951;47.848;-122.338;2022-10-17T01:40:04;36.50;;;22.67;;
50064;SDS011;35951;47.848;-122.338;2022-10-17T01:42:56;30.02;;;20.27;;
50064;SDS011;35951;47.848;-122.338;2022-10-17T01:45:53;36.13;;;22.37;;
50064;SDS011;35951;47.848;-122.338;2022-10-17T01:48:26;33.98;;;21.82;;
50064;SDS011;35951;47.848;-122.338;2022-10-17T01:50:58;32.15;;;21.97;;
50064;SDS011;35951;47.848;-122.338;2022-10-17T01:53:40;31.93;;;21.42;;
50064;SDS011;35951;47.848;-122.338;2022-10-17T01:56:06;32.10;;;20.82;;
50064;SDS011;35951;47.848;-122.338;2022-10-17T01:58:38;28.75;;;21.07;;
50064;SDS011;35951;47.848;-122.338;2022-10-17T02:01:17;29.82;;;20.82;;
50064;SDS011;35951;47.848;-122.338;2022-10-17T02:03:48;31.50;;;22.58;;
50064;SDS011;35951;47.848;-122.338;2022-10-17T02:06:18;36.35;;;22.85;;
50064;SDS011;35951;47.848;-122.338;2022-10-17T02:08:46;32.30;;;21.15;;
50064;SDS011;35951;47.848;-122.338;2022-10-17T02:16:50;30.40;;;21.30;;
50064;SDS011;35951;47.848;-122.338;2022-10-17T02:19:36;31.07;;;19.60;;
50064;SDS011;35951;47.848;-122.338;2022-10-17T02:28:15;31.05;;;22.02;;
50064;SDS011;35951;47.848;-122.338;2022-10-17T02:30:57;33.58;;;21.52;;
50064;SDS011;35951;47.848;-122.338;2022-10-17T02:33:30;38.60;;;21.70;;
50064;SDS011;35951;47.848;-122.338;2022-10-17T02:36:19;30.82;;;21.55;;
50064;SDS011;35951;47.848;-122.338;2022-10-17T02:38:51;30.43;;;19.92;;
50064;SDS011;35951;47.848;-122.338;2022-10-17T02:41:20;30.90;;;20.55;;
50064;SDS011;35951;47.848;-122.338;2022-10-17T02:43:50;32.65;;;21.02;;
50064;SDS011;35951;47.848;-122.338;2022-10-17T02:46:20;35.13;;;22.25;;
50064;SDS011;35951;47.848;-122.338;2022-10-17T02:49:00;37.17;;;23.00;;
50064;SDS011;35951;47.848;-122.338;2022-10-17T02:51:44;35.85;;;23.52;;
50064;SDS011;35951;47.848;-122.338;2022-10-17T02:54:19;38.23;;;23.75;;
50064;SDS011;35951;47.848;-122.338;2022-10-17T02:59:50;30.90;;;20.97;;
50064;SDS011;35951;47.848;-122.338;2022-10-17T03:02:19;28.95;;;20.32;;
50064;SDS011;35951;47.848;-122.338;2022-10-17T03:04:47;30.65;;;21.95;;
50064;SDS011;35951;47.848;-122.338;2022-10-17T03:07:14;34.70;;;22.98;;
50064;SDS011;35951;47.848;-122.338;2022-10-17T03:09:43;34.92;;;22.20;;
50064;SDS011;35951;47.848;-122.338;2022-10-17T03:12:11;36.80;;;25.32;;
50064;SDS011;35951;47.848;-122.338;2022-10-17T03:14:39;38.07;;;24.97;;
50064;SDS011;35951;47.848;-122.338;2022-10-17T03:17:07;38.98;;;22.73;;
50064;SDS011;35951;47.848;-122.338;2022-10-17T03:19:35;39.30;;;22.20;;
50064;SDS011;35951;47.848;-122.338;2022-10-17T03:22:02;32.93;;;21.27;;
50064;SDS011;35951;47.848;-122.338;2022-10-17T03:24:30;35.75;;;22.32;;
50064;SDS011;35951;47.848;-122.338;2022-10-17T03:26:58;36.15;;;24.37;;
50064;SDS011;35951;47.848;-122.338;2022-10-17T03:29:25;33.45;;;22.85;;
50064;SDS011;35951;47.848;-122.338;2022-10-17T03:31:53;45.15;;;23.45;;
50064;SDS011;35951;47.848;-122.338;2022-10-17T03:34:20;35.55;;;22.98;;
50064;SDS011;35951;47.848;-122.338;2022-10-17T03:36:48;32.20;;;21.95;;
50064;SDS011;35951;47.848;-122.338;2022-10-17T03:39:16;34.98;;;22.93;;
50064;SDS011;35951;47.848;-122.338;2022-10-17T03:41:43;33.42;;;21.68;;
50064;SDS011;35951;47.848;-122.338;2022-10-17T03:44:11;35.55;;;22.13;;
50064;SDS011;35951;47.848;-122.338;2022-10-17T03:46:39;34.23;;;21.65;;
50064;SDS011;35951;47.848;-122.338;2022-10-17T03:49:07;37.85;;;22.32;;
50064;SDS011;35951;47.848;-122.338;2022-10-17T03:51:36;28.90;;;20.97;;
50064;SDS011;35951;47.848;-122.338;2022-10-17T03:54:04;31.05;;;21.23;;
50064;SDS011;35951;47.848;-122.338;2022-10-17T03:56:32;33.70;;;20.80;;
50064;SDS011;35951;47.848;-122.338;2022-10-17T03:59:00;29.82;;;20.70;;
50064;SDS011;35951;47.848;-122.338;2022-10-17T04:01:29;30.70;;;21.35;;
50064;SDS011;35951;47.848;-122.338;2022-10-17T04:03:57;36.45;;;21.97;;
50064;SDS011;35951;47.848;-122.338;2022-10-17T04:06:25;34.50;;;20.83;;
50064;SDS011;35951;47.848;-122.338;2022-10-17T04:08:53;36.65;;;21.52;;
50064;SDS011;35951;47.848;-122.338;2022-10-17T04:11:22;28.02;;;18.77;;
50064;SDS011;35951;47.848;-122.338;2022-10-17T04:13:53;31.33;;;19.82;;
50064;SDS011;35951;47.848;-122.338;2022-10-17T04:16:24;29.90;;;18.80;;
50064;SDS011;35951;47.848;-122.338;2022-10-17T04:18:52;29.95;;;19.37;;
50064;SDS011;35951;47.848;-122.338;2022-10-17T04:21:22;32.48;;;20.27;;
50064;SDS011;35951;47.848;-122.338;2022-10-17T04:23:52;33.85;;;19.42;;
50064;SDS011;35951;47.848;-122.338;2022-10-17T04:26:21;26.77;;;18.85;;
50064;SDS011;35951;47.848;-122.338;2022-10-17T04:28:50;24.85;;;16.37;;
50064;SDS011;35951;47.848;-122.338;2022-10-17T04:31:18;27.02;;;17.55;;
50064;SDS011;35951;47.848;-122.338;2022-10-17T04:33:46;26.15;;;18.70;;
50064;SDS011;35951;47.848;-122.338;2022-10-17T04:36:19;35.15;;;19.92;;
50064;SDS011;35951;47.848;-122.338;2022-10-17T04:38:45;30.35;;;18.05;;
50064;SDS011;35951;47.848;-122.338;2022-10-17T04:41:14;29.95;;;17.73;;
50064;SDS011;35951;47.848;-122.338;2022-10-17T04:43:43;28.73;;;17.73;;
50064;SDS011;35951;47.848;-122.338;2022-10-17T04:46:11;27.15;;;16.97;;
50064;SDS011;35951;47.848;-122.338;2022-10-17T04:48:43;29.07;;;16.90;;
50064;SDS011;35951;47.848;-122.338;2022-10-17T04:51:12;28.32;;;18.80;;
50064;SDS011;35951;47.848;-122.338;2022-10-17T04:53:42;30.02;;;18.07;;
50064;SDS011;35951;47.848;-122.338;2022-10-17T04:56:10;28.70;;;18.73;;
50064;SDS011;35951;47.848;-122.338;2022-10-17T04:58:41;32.90;;;17.62;;
50064;SDS011;35951;47.848;-122.338;2022-10-17T05:01:10;26.17;;;16.02;;
50064;SDS011;35951;47.848;-122.338;2022-10-17T05:03:41;25.88;;;18.07;;
50064;SDS011;35951;47.848;-122.338;2022-10-17T05:06:10;33.48;;;17.05;;
50064;SDS011;35951;47.848;-122.338;2022-10-17T05:08:40;28.00;;;16.52;;
50064;SDS011;35951;47.848;-122.338;2022-10-17T05:11:15;22.73;;;16.25;;
50064;SDS011;35951;47.848;-122.338;2022-10-17T05:13:51;27.95;;;15.93;;
50064;SDS011;35951;47.848;-122.338;2022-10-17T05:16:24;21.17;;;15.40;;
50064;SDS011;35951;47.848;-122.338;2022-10-17T05:18:54;24.65;;;15.93;;
50064;SDS011;35951;47.848;-122.338;2022-10-17T05:21:24;23.73;;;12.90;;
50064;SDS011;35951;47.848;-122.338;2022-10-17T05:23:53;26.55;;;16.20;;
50064;SDS011;35951;47.848;-122.338;2022-10-17T05:26:21;23.50;;;15.72;;
50064;SDS011;35951;47.848;-122.338;2022-10-17T05:28:50;25.85;;;15.55;;
50064;SDS011;35951;47.848;-122.338;2022-10-17T05:31:18;25.05;;;16.32;;
50064;SDS011;35951;47.848;-122.338;2022-10-17T05:33:46;22.40;;;14.60;;
50064;SDS011;35951;47.848;-122.338;2022-10-17T05:36:13;21.35;;;13.80;;
50064;SDS011;35951;47.848;-122.338;2022-10-17T05:38:42;22.70;;;13.88;;
50064;SDS011;35951;47.848;-122.338;2022-10-17T05:41:11;22.85;;;13.88;;
50064;SDS011;35951;47.848;-122.338;2022-10-17T05:43:39;20.03;;;14.73;;
50064;SDS011;35951;47.848;-122.338;2022-10-17T05:46:08;21.27;;;14.03;;
50064;SDS011;35951;47.848;-122.338;2022-10-17T05:48:36;19.92;;;13.43;;
50064;SDS011;35951;47.848;-122.338;2022-10-17T05:51:05;20.50;;;10.85;;
50064;SDS011;35951;47.848;-122.338;2022-10-17T05:53:40;19.85;;;9.95;;
50064;SDS011;35951;47.848;-122.338;2022-10-17T05:56:07;17.35;;;10.18;;
50064;SDS011;35951;47.848;-122.338;2022-10-17T05:58:38;13.95;;;9.15;;
50064;SDS011;35951;47.848;-122.338;2022-10-17T06:01:10;14.60;;;9.90;;
50064;SDS011;35951;47.848;-122.338;2022-10-17T06:03:39;15.28;;;9.05;;
50064;SDS011;35951;47.848;-122.338;2022-10-17T06:06:09;12.25;;;7.65;;
50064;SDS011;35951;47.848;-122.338;2022-10-17T06:08:38;14.35;;;7.55;;
50064;SDS011;35951;47.848;-122.338;2022-10-17T06:11:06;18.80;;;8.13;;
50064;SDS011;35951;47.848;-122.338;2022-10-17T06:13:33;10.85;;;7.25;;
50064;SDS011;35951;47.848;-122.338;2022-10-17T06:16:01;19.85;;;8.80;;
50064;SDS011;35951;47.848;-122.338;2022-10-17T06:18:29;17.98;;;6.33;;
50064;SDS011;35951;47.848;-122.338;2022-10-17T06:21:03;14.98;;;7.00;;
50064;SDS011;35951;47.848;-122.338;2022-10-17T06:23:34;12.00;;;5.28;;
50064;SDS011;35951;47.848;-122.338;2022-10-17T06:26:02;13.05;;;6.50;;
50064;SDS011;35951;47.848;-122.338;2022-10-17T06:28:31;13.60;;;5.28;;
50064;SDS011;35951;47.848;-122.338;2022-10-17T06:30:59;9.63;;;6.22;;
50064;SDS011;35951;47.848;-122.338;2022-10-17T06:33:32;8.55;;;4.42;;
50064;SDS011;35951;47.848;-122.338;2022-10-17T06:36:00;9.10;;;4.78;;
50064;SDS011;35951;47.848;-122.338;2022-10-17T06:38:29;9.25;;;3.70;;
50064;SDS011;35951;47.848;-122.338;2022-10-17T06:41:03;14.90;;;4.28;;
50064;SDS011;35951;47.848;-122.338;2022-10-17T06:43:36;9.63;;;4.30;;
50064;SDS011;35951;47.848;-122.338;2022-10-17T06:46:05;8.78;;;4.45;;
50064;SDS011;35951;47.848;-122.338;2022-10-17T06:48:33;17.73;;;3.05;;
50064;SDS011;35951;47.848;-122.338;2022-10-17T06:51:01;12.18;;;3.58;;
50064;SDS011;35951;47.848;-122.338;2022-10-17T06:53:32;8.48;;;3.00;;
50064;SDS011;35951;47.848;-122.338;2022-10-17T06:56:01;10.90;;;3.27;;
50064;SDS011;35951;47.848;-122.338;2022-10-17T06:58:30;9.58;;;2.98;;
50064;SDS011;35951;47.848;-122.338;2022-10-17T07:01:07;7.55;;;4.33;;
50064;SDS011;35951;47.848;-122.338;2022-10-17T07:03:37;11.63;;;3.62;;
50064;SDS011;35951;47.848;-122.338;2022-10-17T07:06:07;7.20;;;2.33;;
50064;SDS011;35951;47.848;-122.338;2022-10-17T07:08:36;9.68;;;3.05;;
50064;SDS011;35951;47.848;-122.338;2022-10-17T07:11:13;9.83;;;3.30;;
50064;SDS011;35951;47.848;-122.338;2022-10-17T07:13:41;8.13;;;2.80;;
50064;SDS011;35951;47.848;-122.338;2022-10-17T07:16:09;7.37;;;2.80;;
50064;SDS011;35951;47.848;-122.338;2022-10-17T07:18:38;17.60;;;3.30;;
50064;SDS011;35951;47.848;-122.338;2022-10-17T07:21:07;8.18;;;1.80;;
50064;SDS011;35951;47.848;-122.338;2022-10-17T07:23:35;13.53;;;2.98;;
50064;SDS011;35951;47.848;-122.338;2022-10-17T07:26:05;6.42;;;1.75;;
50064;SDS011;35951;47.848;-122.338;2022-10-17T07:28:37;6.00;;;1.50;;
50064;SDS011;35951;47.848;-122.338;2022-10-17T07:31:07;6.42;;;2.15;;
50064;SDS011;35951;47.848;-122.338;2022-10-17T07:33:39;4.67;;;2.08;;
50064;SDS011;35951;47.848;-122.338;2022-10-17T07:36:08;9.65;;;1.90;;
50064;SDS011;35951;47.848;-122.338;2022-10-17T07:38:36;11.45;;;2.83;;
50064;SDS011;35951;47.848;-122.338;2022-10-17T07:41:05;8.73;;;2.00;;
50064;SDS011;35951;47.848;-122.338;2022-10-17T07:43:34;4.42;;;2.10;;
50064;SDS011;35951;47.848;-122.338;2022-10-17T07:46:02;6.97;;;2.27;;
50064;SDS011;35951;47.848;-122.338;2022-10-17T07:48:32;9.15;;;1.87;;
50064;SDS011;35951;47.848;-122.338;2022-10-17T07:51:04;6.37;;;2.12;;
50064;SDS011;35951;47.848;-122.338;2022-10-17T07:53:35;7.47;;;2.00;;
50064;SDS011;35951;47.848;-122.338;2022-10-17T07:56:09;7.72;;;2.08;;
50064;SDS011;35951;47.848;-122.338;2022-10-17T07:58:35;6.30;;;2.40;;
50064;SDS011;35951;47.848;-122.338;2022-10-17T08:01:04;7.47;;;2.70;;
50064;SDS011;35951;47.848;-122.338;2022-10-17T08:03:35;4.85;;;1.95;;
50064;SDS011;35951;47.848;-122.338;2022-10-17T08:06:03;4.42;;;1.40;;
50064;SDS011;35951;47.848;-122.338;2022-10-17T08:08:31;6.35;;;1.60;;
50064;SDS011;35951;47.848;-122.338;2022-10-17T08:11:03;9.43;;;1.53;;
50064;SDS011;35951;47.848;-122.338;2022-10-17T08:13:30;8.50;;;1.67;;
50064;SDS011;35951;47.848;-122.338;2022-10-17T08:16:00;5.08;;;1.62;;
50064;SDS011;35951;47.848;-122.338;2022-10-17T08:18:30;8.95;;;2.02;;
50064;SDS011;35951;47.848;-122.338;2022-10-17T08:20:58;5.90;;;1.55;;
50064;SDS011;35951;47.848;-122.338;2022-10-17T08:23:27;10.23;;;1.45;;
50064;SDS011;35951;47.848;-122.338;2022-10-17T08:25:57;6.83;;;1.75;;
50064;SDS011;35951;47.848;-122.338;2022-10-17T08:28:25;8.33;;;2.20;;
50064;SDS011;35951;47.848;-122.338;2022-10-17T08:31:04;7.53;;;2.22;;
50064;SDS011;35951;47.848;-122.338;2022-10-17T08:33:37;8.05;;;1.98;;
50064;SDS011;35951;47.848;-122.338;2022-10-17T08:36:06;12.68;;;1.77;;
50064;SDS011;35951;47.848;-122.338;2022-10-17T08:38:35;6.47;;;1.20;;
50064;SDS011;35951;47.848;-122.338;2022-10-17T08:46:40;6.72;;;1.65;;
50064;SDS011;35951;47.848;-122.338;2022-10-17T08:49:11;5.92;;;1.62;;
50064;SDS011;35951;47.848;-122.338;2022-10-17T08:51:52;5.25;;;1.35;;
50064;SDS011;35951;47.848;-122.338;2022-10-17T08:54:31;4.10;;;1.67;;
50064;SDS011;35951;47.848;-122.338;2022-10-17T08:56:59;5.50;;;1.30;;
50064;SDS011;35951;47.848;-122.338;2022-10-17T08:59:28;6.25;;;1.65;;
50064;SDS011;35951;47.848;-122.338;2022-10-17T09:19:20;5.33;;;1.10;;
50064;SDS011;35951;47.848;-122.338;2022-10-17T09:22:13;4.30;;;1.25;;
50064;SDS011;35951;47.848;-122.338;2022-10-17T09:24:54;7.25;;;1.27;;
50064;SDS011;35951;47.848;-122.338;2022-10-17T09:27:25;3.15;;;1.27;;
50064;SDS011;35951;47.848;-122.338;2022-10-17T09:33:12;8.40;;;1.65;;
50064;SDS011;35951;47.848;-122.338;2022-10-17T09:35:42;4.83;;;1.02;;
50064;SDS011;35951;47.848;-122.338;2022-10-17T09:38:15;4.25;;;1.35;;
50064;SDS011;35951;47.848;-122.338;2022-10-17T09:40:49;9.25;;;1.32;;
50064;SDS011;35951;47.848;-122.338;2022-10-17T09:43:24;10.30;;;1.52;;
50064;SDS011;35951;47.848;-122.338;2022-10-17T09:46:06;5.05;;;1.27;;
50064;SDS011;35951;47.848;-122.338;2022-10-17T09:49:02;9.70;;;1.30;;
50064;SDS011;35951;47.848;-122.338;2022-10-17T09:51:42;5.17;;;0.98;;
50064;SDS011;35951;47.848;-122.338;2022-10-17T09:59:33;5.17;;;1.10;;
50064;SDS011;35951;47.848;-122.338;2022-10-17T10:04:57;4.58;;;1.40;;
50064;SDS011;35951;47.848;-122.338;2022-10-17T10:10:23;8.40;;;1.55;;
50064;SDS011;35951;47.848;-122.338;2022-10-17T10:13:06;8.30;;;1.27;;
50064;SDS011;35951;47.848;-122.338;2022-10-17T10:15:40;6.85;;;1.00;;
50064;SDS011;35951;47.848;-122.338;2022-10-17T10:18:25;6.00;;;1.72;;
50064;SDS011;35951;47.848;-122.338;2022-10-17T10:21:07;5.58;;;1.22;;
50064;SDS011;35951;47.848;-122.338;2022-10-17T10:23:39;2.35;;;0.93;;
50064;SDS011;35951;47.848;-122.338;2022-10-17T10:26:16;2.92;;;0.90;;
50064;SDS011;35951;47.848;-122.338;2022-10-17T10:28:55;9.58;;;1.22;;
50064;SDS011;35951;47.848;-122.338;2022-10-17T10:31:39;9.98;;;1.30;;
50064;SDS011;35951;47.848;-122.338;2022-10-17T10:35:05;3.05;;;0.90;;
50064;SDS011;35951;47.848;-122.338;2022-10-17T10:39:25;8.00;;;1.27;;
50064;SDS011;35951;47.848;-122.338;2022-10-17T10:42:04;6.08;;;1.17;;
50064;SDS011;35951;47.848;-122.338;2022-10-17T10:44:47;5.25;;;1.25;;
50064;SDS011;35951;47.848;-122.338;2022-10-17T10:47:16;7.87;;;1.35;;
50064;SDS011;35951;47.848;-122.338;2022-10-17T10:49:48;4.50;;;1.22;;
50064;SDS011;35951;47.848;-122.338;2022-10-17T10:52:23;10.75;;;1.37;;
50064;SDS011;35951;47.848;-122.338;2022-10-17T10:55:44;3.27;;;1.12;;
50064;SDS011;35951;47.848;-122.338;2022-10-17T10:57:30;5.65;;;1.30;;
50064;SDS011;35951;47.848;-122.338;2022-10-17T11:00:17;7.12;;;1.32;;
50064;SDS011;35951;47.848;-122.338;2022-10-17T11:11:12;6.33;;;1.27;;
50064;SDS011;35951;47.848;-122.338;2022-10-17T11:22:29;8.60;;;1.30;;
50064;SDS011;35951;47.848;-122.338;2022-10-17T11:27:59;8.50;;;1.00;;
50064;SDS011;35951;47.848;-122.338;2022-10-17T11:30:38;5.12;;;1.05;;
50064;SDS011;35951;47.848;-122.338;2022-10-17T11:33:08;2.98;;;0.90;;
50064;SDS011;35951;47.848;-122.338;2022-10-17T11:35:40;4.65;;;1.82;;
50064;SDS011;35951;47.848;-122.338;2022-10-17T11:38:23;5.05;;;1.62;;
50064;SDS011;35951;47.848;-122.338;2022-10-17T11:41:01;2.40;;;1.10;;
50064;SDS011;35951;47.848;-122.338;2022-10-17T11:46:05;8.68;;;1.02;;
50064;SDS011;35951;47.848;-122.338;2022-10-17T11:51:28;5.53;;;1.45;;
50064;SDS011;35951;47.848;-122.338;2022-10-17T12:02:17;9.35;;;1.40;;
50064;SDS011;35951;47.848;-122.338;2022-10-17T12:07:51;7.62;;;1.30;;
50064;SDS011;35951;47.848;-122.338;2022-10-17T12:18:51;9.63;;;1.20;;
50064;SDS011;35951;47.848;-122.338;2022-10-17T12:22:31;6.10;;;1.30;;
50064;SDS011;35951;47.848;-122.338;2022-10-17T12:30:20;5.67;;;1.45;;
50064;SDS011;35951;47.848;-122.338;2022-10-17T12:35:45;8.53;;;1.20;;
50064;SDS011;35951;47.848;-122.338;2022-10-17T12:40:51;6.40;;;1.12;;
50064;SDS011;35951;47.848;-122.338;2022-10-17T12:46:00;6.12;;;1.02;;
50064;SDS011;35951;47.848;-122.338;2022-10-17T12:51:13;9.75;;;1.32;;
50064;SDS011;35951;47.848;-122.338;2022-10-17T12:56:30;5.62;;;1.30;;
50064;SDS011;35951;47.848;-122.338;2022-10-17T12:59:42;5.00;;;1.42;;
50064;SDS011;35951;47.848;-122.338;2022-10-17T13:01:56;8.58;;;1.20;;
50064;SDS011;35951;47.848;-122.338;2022-10-17T13:04:27;5.33;;;1.57;;
50064;SDS011;35951;47.848;-122.338;2022-10-17T13:06:57;4.78;;;1.05;;
50064;SDS011;35951;47.848;-122.338;2022-10-17T13:09:30;5.62;;;1.37;;
50064;SDS011;35951;47.848;-122.338;2022-10-17T13:12:03;3.65;;;1.30;;
50064;SDS011;35951;47.848;-122.338;2022-10-17T13:14:35;3.85;;;1.00;;
50064;SDS011;35951;47.848;-122.338;2022-10-17T13:17:12;9.40;;;1.67;;
50064;SDS011;35951;47.848;-122.338;2022-10-17T13:19:51;3.92;;;1.40;;
50064;SDS011;35951;47.848;-122.338;2022-10-17T13:24:50;5.20;;;1.00;;
50064;SDS011;35951;47.848;-122.338;2022-10-17T13:29:57;3.25;;;1.10;;
50064;SDS011;35951;47.848;-122.338;2022-10-17T13:32:34;8.68;;;1.40;;
50064;SDS011;35951;47.848;-122.338;2022-10-17T13:35:05;3.65;;;0.80;;
50064;SDS011;35951;47.848;-122.338;2022-10-17T13:37:44;7.83;;;1.72;;
50064;SDS011;35951;47.848;-122.338;2022-10-17T13:40:37;4.45;;;1.52;;
50064;SDS011;35951;47.848;-122.338;2022-10-17T13:42:46;5.15;;;1.20;;
50064;SDS011;35951;47.848;-122.338;2022-10-17T13:45:30;4.85;;;1.30;;
50064;SDS011;35951;47.848;-122.338;2022-10-17T13:48:00;9.70;;;1.47;;
50064;SDS011;35951;47.848;-122.338;2022-10-17T13:56:17;9.05;;;1.40;;
50064;SDS011;35951;47.848;-122.338;2022-10-17T13:58:51;7.58;;;1.67;;
50064;SDS011;35951;47.848;-122.338;2022-10-17T14:01:22;3.65;;;1.10;;
50064;SDS011;35951;47.848;-122.338;2022-10-17T14:03:52;7.47;;;2.20;;
50064;SDS011;35951;47.848;-122.338;2022-10-17T14:06:23;7.58;;;1.17;;
50064;SDS011;35951;47.848;-122.338;2022-10-17T14:09:01;3.47;;;1.55;;
50064;SDS011;35951;47.848;-122.338;2022-10-17T14:14:04;4.53;;;1.20;;
50064;SDS011;35951;47.848;-122.338;2022-10-17T14:16:44;6.30;;;1.00;;
50064;SDS011;35951;47.848;-122.338;2022-10-17T14:19:22;9.50;;;2.13;;
50064;SDS011;35951;47.848;-122.338;2022-10-17T14:21:48;7.85;;;1.72;;
50064;SDS011;35951;47.848;-122.338;2022-10-17T14:26:56;5.30;;;1.55;;
50064;SDS011;35951;47.848;-122.338;2022-10-17T14:32:00;5.33;;;1.22;;
50064;SDS011;35951;47.848;-122.338;2022-10-17T14:37:11;3.80;;;1.10;;
50064;SDS011;35951;47.848;-122.338;2022-10-17T14:39:54;4.87;;;1.00;;
50064;SDS011;35951;47.848;-122.338;2022-10-17T14:42:29;5.58;;;1.55;;
50064;SDS011;35951;47.848;-122.338;2022-10-17T14:47:28;4.78;;;1.30;;
50064;SDS011;35951;47.848;-122.338;2022-10-17T14:52:48;8.78;;;1.60;;
50064;SDS011;35951;47.848;-122.338;2022-10-17T14:55:39;4.80;;;1.02;;
50064;SDS011;35951;47.848;-122.338;2022-10-17T14:58:17;6.42;;;1.92;;
50064;SDS011;35951;47.848;-122.338;2022-10-17T15:00:47;2.90;;;1.10;;
50064;SDS011;35951;47.848;-122.338;2022-10-17T15:03:15;8.78;;;1.40;;
50064;SDS011;35951;47.848;-122.338;2022-10-17T15:05:44;6.40;;;1.52;;
50064;SDS011;35951;47.848;-122.338;2022-10-17T15:10:41;5.90;;;1.10;;
50064;SDS011;35951;47.848;-122.338;2022-10-17T15:15:38;7.08;;;1.35;;
50064;SDS011;35951;47.848;-122.338;2022-10-17T15:20:38;3.37;;;1.20;;
50064;SDS011;35951;47.848;-122.338;2022-10-17T15:23:07;3.85;;;1.20;;
50064;SDS011;35951;47.848;-122.338;2022-10-17T15:25:35;3.35;;;1.00;;
50064;SDS011;35951;47.848;-122.338;2022-10-17T15:28:04;4.50;;;1.47;;
50064;SDS011;35951;47.848;-122.338;2022-10-17T15:30:35;3.77;;;1.15;;
50064;SDS011;35951;47.848;-122.338;2022-10-17T15:33:04;3.62;;;1.22;;
50064;SDS011;35951;47.848;-122.338;2022-10-17T15:35:33;5.47;;;1.20;;
50064;SDS011;35951;47.848;-122.338;2022-10-17T15:38:02;5.97;;;1.40;;
50064;SDS011;35951;47.848;-122.338;2022-10-17T15:40:33;4.10;;;1.15;;
50064;SDS011;35951;47.848;-122.338;2022-10-17T15:43:02;5.62;;;2.08;;
50064;SDS011;35951;47.848;-122.338;2022-10-17T15:45:30;8.88;;;2.25;;
50064;SDS011;35951;47.848;-122.338;2022-10-17T15:48:03;6.80;;;1.45;;
50064;SDS011;35951;47.848;-122.338;2022-10-17T15:50:31;7.70;;;1.62;;
50064;SDS011;35951;47.848;-122.338;2022-10-17T15:52:59;4.30;;;1.20;;
50064;SDS011;35951;47.848;-122.338;2022-10-17T15:55:27;6.22;;;1.65;;
50064;SDS011;35951;47.848;-122.338;2022-10-17T15:57:56;4.12;;;1.07;;
50064;SDS011;35951;47.848;-122.338;2022-10-17T16:00:24;5.78;;;1.20;;
50064;SDS011;35951;47.848;-122.338;2022-10-17T16:02:52;8.83;;;1.72;;
50064;SDS011;35951;47.848;-122.338;2022-10-17T16:05:21;5.45;;;1.55;;
50064;SDS011;35951;47.848;-122.338;2022-10-17T16:07:53;5.03;;;1.77;;
50064;SDS011;35951;47.848;-122.338;2022-10-17T16:10:22;8.15;;;1.55;;
50064;SDS011;35951;47.848;-122.338;2022-10-17T16:12:50;4.92;;;1.00;;
50064;SDS011;35951;47.848;-122.338;2022-10-17T16:15:20;5.83;;;1.60;;
50064;SDS011;35951;47.848;-122.338;2022-10-17T16:17:50;3.37;;;1.20;;
50064;SDS011;35951;47.848;-122.338;2022-10-17T16:22:46;5.10;;;1.50;;
50064;SDS011;35951;47.848;-122.338;2022-10-17T16:25:21;5.12;;;1.37;;
50064;SDS011;35951;47.848;-122.338;2022-10-17T16:27:53;3.80;;;1.00;;
50064;SDS011;35951;47.848;-122.338;2022-10-17T16:30:23;7.28;;;1.37;;
50064;SDS011;35951;47.848;-122.338;2022-10-17T16:32:52;8.13;;;1.67;;
50064;SDS011;35951;47.848;-122.338;2022-10-17T16:35:23;5.20;;;1.00;;
50064;SDS011;35951;47.848;-122.338;2022-10-17T16:37:55;4.87;;;1.27;;
50064;SDS011;35951;47.848;-122.338;2022-10-17T16:40:23;3.83;;;1.52;;
50064;SDS011;35951;47.848;-122.338;2022-10-17T16:42:51;8.08;;;1.32;;
50064;SDS011;35951;47.848;-122.338;2022-10-17T16:45:20;12.07;;;3.63;;
50064;SDS011;35951;47.848;-122.338;2022-10-17T16:47:48;8.13;;;2.08;;
50064;SDS011;35951;47.848;-122.338;2022-10-17T16:50:17;8.68;;;3.10;;
50064;SDS011;35951;47.848;-122.338;2022-10-17T16:52:45;7.85;;;2.55;;
50064;SDS011;35951;47.848;-122.338;2022-10-17T16:55:13;11.73;;;3.83;;
50064;SDS011;35951;47.848;-122.338;2022-10-17T16:57:43;5.85;;;3.55;;
50064;SDS011;35951;47.848;-122.338;2022-10-17T17:00:13;8.20;;;2.45;;
50064;SDS011;35951;47.848;-122.338;2022-10-17T17:02:42;9.35;;;2.95;;
50064;SDS011;35951;47.848;-122.338;2022-10-17T17:05:11;8.65;;;3.35;;
50064;SDS011;35951;47.848;-122.338;2022-10-17T17:07:39;14.25;;;4.03;;
50064;SDS011;35951;47.848;-122.338;2022-10-17T17:10:08;8.63;;;3.25;;
50064;SDS011;35951;47.848;-122.338;2022-10-17T17:12:36;16.10;;;4.17;;
50064;SDS011;35951;47.848;-122.338;2022-10-17T17:15:04;9.50;;;2.67;;
50064;SDS011;35951;47.848;-122.338;2022-10-17T17:17:32;8.03;;;3.30;;
50064;SDS011;35951;47.848;-122.338;2022-10-17T17:20:02;6.03;;;2.80;;
50064;SDS011;35951;47.848;-122.338;2022-10-17T17:22:30;13.65;;;3.67;;